sensor_id;sensor_type;location;lat;lon;timestamp;pressure;altitude;pressure_sealevel;temperature;humidity
71248;BME280;73325;51.138;6.950;2023-12-04T00:01:45;101032.00;;;1.03;89.21
71248;BME280;73325;51.138;6.950;2023-12-04T00:04:15;101031.00;;;1.04;89.40
71248;BME280;73325;51.138;6.950;2023-12-04T00:06:45;101031.00;;;1.05;89.46
71248;BME280;73325;51.138;6.950;2023-12-04T00:09:20;101027.00;;;1.06;89.18
71248;BME280;73325;51.138;6.950;2023-12-04T00:11:48;101025.00;;;1.07;88.52
71248;BME280;73325;51.138;6.950;2023-12-04T00:14:17;101023.00;;;1.09;88.10
71248;BME280;73325;51.138;6.950;2023-12-04T00:16:49;101019.00;;;1.11;88.30
71248;BME280;73325;51.138;6.950;2023-12-04T00:19:17;101016.00;;;1.12;87.89
71248;BME280;73325;51.138;6.950;2023-12-04T00:21:47;101013.00;;;1.14;87.82
71248;BME280;73325;51.138;6.950;2023-12-04T00:24:17;101010.00;;;1.16;87.91
71248;BME280;73325;51.138;6.950;2023-12-04T00:26:47;101009.00;;;1.18;87.47
71248;BME280;73325;51.138;6.950;2023-12-04T00:29:17;101006.00;;;1.20;87.63
71248;BME280;73325;51.138;6.950;2023-12-04T00:31:47;101003.00;;;1.22;86.82
71248;BME280;73325;51.138;6.950;2023-12-04T00:34:19;101002.00;;;1.24;86.93
71248;BME280;73325;51.138;6.950;2023-12-04T00:36:47;100999.00;;;1.26;87.16
71248;BME280;73325;51.138;6.950;2023-12-04T00:39:21;100997.00;;;1.27;87.31
71248;BME280;73325;51.138;6.950;2023-12-04T00:41:53;100994.00;;;1.28;86.54
71248;BME280;73325;51.138;6.950;2023-12-04T00:44:18;100992.00;;;1.29;86.44
71248;BME280;73325;51.138;6.950;2023-12-04T00:46:48;100990.00;;;1.29;86.50
71248;BME280;73325;51.138;6.950;2023-12-04T00:49:19;100987.00;;;1.30;86.25
71248;BME280;73325;51.138;6.950;2023-12-04T00:51:48;100982.00;;;1.30;86.17
71248;BME280;73325;51.138;6.950;2023-12-04T00:54:18;100977.00;;;1.31;86.21
71248;BME280;73325;51.138;6.950;2023-12-04T00:56:48;100973.00;;;1.31;86.44
71248;BME280;73325;51.138;6.950;2023-12-04T00:59:18;100970.00;;;1.30;86.31
71248;BME280;73325;51.138;6.950;2023-12-04T01:01:48;100966.00;;;1.29;85.94
71248;BME280;73325;51.138;6.950;2023-12-04T01:04:18;100963.00;;;1.28;86.43
71248;BME280;73325;51.138;6.950;2023-12-04T01:06:48;100961.00;;;1.27;86.62
71248;BME280;73325;51.138;6.950;2023-12-04T01:09:18;100957.00;;;1.25;85.85
71248;BME280;73325;51.138;6.950;2023-12-04T01:11:48;100954.00;;;1.24;86.00
71248;BME280;73325;51.138;6.950;2023-12-04T01:14:18;100952.00;;;1.23;86.42
71248;BME280;73325;51.138;6.950;2023-12-04T01:16:50;100949.00;;;1.22;86.00
71248;BME280;73325;51.138;6.950;2023-12-04T01:19:19;100946.00;;;1.20;85.37
71248;BME280;73325;51.138;6.950;2023-12-04T01:21:49;100944.00;;;1.19;85.59
71248;BME280;73325;51.138;6.950;2023-12-04T01:24:19;100941.00;;;1.19;85.32
71248;BME280;73325;51.138;6.950;2023-12-04T01:26:49;100940.00;;;1.18;85.42
71248;BME280;73325;51.138;6.950;2023-12-04T01:29:19;100938.00;;;1.17;85.36
71248;BME280;73325;51.138;6.950;2023-12-04T01:31:49;100938.00;;;1.17;85.05
71248;BME280;73325;51.138;6.950;2023-12-04T01:34:19;100938.00;;;1.16;85.44
71248;BME280;73325;51.138;6.950;2023-12-04T01:36:52;100937.00;;;1.15;86.15
71248;BME280;73325;51.138;6.950;2023-12-04T01:39:23;100937.00;;;1.15;84.91
71248;BME280;73325;51.138;6.950;2023-12-04T01:41:54;100936.00;;;1.14;85.00
71248;BME280;73325;51.138;6.950;2023-12-04T01:44:21;100934.00;;;1.14;84.83
71248;BME280;73325;51.138;6.950;2023-12-04T01:46:52;100933.00;;;1.13;85.31
71248;BME280;73325;51.138;6.950;2023-12-04T01:49:25;100931.00;;;1.12;85.86
71248;BME280;73325;51.138;6.950;2023-12-04T01:51:53;100929.00;;;1.12;84.60
71248;BME280;73325;51.138;6.950;2023-12-04T01:54:24;100927.00;;;1.11;84.49
71248;BME280;73325;51.138;6.950;2023-12-04T01:56:53;100924.00;;;1.11;84.63
71248;BME280;73325;51.138;6.950;2023-12-04T01:59:25;100920.00;;;1.12;84.35
71248;BME280;73325;51.138;6.950;2023-12-04T02:01:57;100917.00;;;1.12;84.03
71248;BME280;73325;51.138;6.950;2023-12-04T02:04:25;100914.00;;;1.12;84.58
71248;BME280;73325;51.138;6.950;2023-12-04T02:06:55;100911.00;;;1.12;85.19
71248;BME280;73325;51.138;6.950;2023-12-04T02:09:25;100909.00;;;1.12;84.47
71248;BME280;73325;51.138;6.950;2023-12-04T02:11:55;100906.00;;;1.13;83.82
71248;BME280;73325;51.138;6.950;2023-12-04T02:14:27;100903.00;;;1.14;84.43
71248;BME280;73325;51.138;6.950;2023-12-04T02:16:57;100904.00;;;1.15;84.09
71248;BME280;73325;51.138;6.950;2023-12-04T02:19:26;100905.00;;;1.15;84.46
71248;BME280;73325;51.138;6.950;2023-12-04T02:21:56;100903.00;;;1.16;83.51
71248;BME280;73325;51.138;6.950;2023-12-04T02:24:29;100903.00;;;1.17;83.73
71248;BME280;73325;51.138;6.950;2023-12-04T02:27:03;100901.00;;;1.18;83.35
71248;BME280;73325;51.138;6.950;2023-12-04T02:29:32;100900.00;;;1.19;83.62
71248;BME280;73325;51.138;6.950;2023-12-04T02:34:31;100894.00;;;1.22;82.91
71248;BME280;73325;51.138;6.950;2023-12-04T02:36:59;100890.00;;;1.23;83.32
71248;BME280;73325;51.138;6.950;2023-12-04T02:39:30;100885.00;;;1.24;82.83
71248;BME280;73325;51.138;6.950;2023-12-04T02:42:02;100880.00;;;1.25;83.33
71248;BME280;73325;51.138;6.950;2023-12-04T02:44:30;100874.00;;;1.27;82.85
71248;BME280;73325;51.138;6.950;2023-12-04T02:47:05;100870.00;;;1.28;83.12
71248;BME280;73325;51.138;6.950;2023-12-04T02:49:31;100866.00;;;1.29;82.63
71248;BME280;73325;51.138;6.950;2023-12-04T02:52:02;100862.00;;;1.31;83.11
71248;BME280;73325;51.138;6.950;2023-12-04T02:54:32;100860.00;;;1.32;82.85
71248;BME280;73325;51.138;6.950;2023-12-04T02:57:02;100857.00;;;1.33;82.13
71248;BME280;73325;51.138;6.950;2023-12-04T02:59:33;100853.00;;;1.34;82.96
71248;BME280;73325;51.138;6.950;2023-12-04T03:02:03;100849.00;;;1.35;82.86
71248;BME280;73325;51.138;6.950;2023-12-04T03:04:34;100845.00;;;1.35;82.00
71248;BME280;73325;51.138;6.950;2023-12-04T03:07:07;100841.00;;;1.36;82.42
71248;BME280;73325;51.138;6.950;2023-12-04T03:09:34;100838.00;;;1.37;82.28
71248;BME280;73325;51.138;6.950;2023-12-04T03:12:04;100835.00;;;1.37;82.36
71248;BME280;73325;51.138;6.950;2023-12-04T03:14:35;100831.00;;;1.37;82.17
71248;BME280;73325;51.138;6.950;2023-12-04T03:17:05;100828.00;;;1.37;81.87
71248;BME280;73325;51.138;6.950;2023-12-04T03:19:37;100824.00;;;1.38;81.32
71248;BME280;73325;51.138;6.950;2023-12-04T03:22:06;100820.00;;;1.39;81.57
71248;BME280;73325;51.138;6.950;2023-12-04T03:24:36;100818.00;;;1.40;81.76
71248;BME280;73325;51.138;6.950;2023-12-04T03:27:06;100815.00;;;1.40;81.07
71248;BME280;73325;51.138;6.950;2023-12-04T03:29:36;100813.00;;;1.40;81.38
71248;BME280;73325;51.138;6.950;2023-12-04T03:32:06;100810.00;;;1.40;81.76
71248;BME280;73325;51.138;6.950;2023-12-04T03:34:36;100808.00;;;1.39;81.09
71248;BME280;73325;51.138;6.950;2023-12-04T03:37:06;100807.00;;;1.39;81.02
71248;BME280;73325;51.138;6.950;2023-12-04T03:39:36;100805.00;;;1.39;80.85
71248;BME280;73325;51.138;6.950;2023-12-04T03:42:06;100803.00;;;1.39;80.60
71248;BME280;73325;51.138;6.950;2023-12-04T03:44:36;100801.00;;;1.38;81.08
71248;BME280;73325;51.138;6.950;2023-12-04T03:47:07;100799.00;;;1.38;80.40
71248;BME280;73325;51.138;6.950;2023-12-04T03:49:39;100795.00;;;1.38;80.79
71248;BME280;73325;51.138;6.950;2023-12-04T03:52:10;100794.00;;;1.38;80.69
71248;BME280;73325;51.138;6.950;2023-12-04T03:54:38;100792.00;;;1.38;78.98
71248;BME280;73325;51.138;6.950;2023-12-04T03:57:08;100789.00;;;1.39;79.73
71248;BME280;73325;51.138;6.950;2023-12-04T03:59:38;100787.00;;;1.40;79.77
71248;BME280;73325;51.138;6.950;2023-12-04T04:02:08;100784.00;;;1.41;79.30
71248;BME280;73325;51.138;6.950;2023-12-04T04:04:38;100782.00;;;1.42;79.94
71248;BME280;73325;51.138;6.950;2023-12-04T04:07:10;100780.00;;;1.42;79.30
71248;BME280;73325;51.138;6.950;2023-12-04T04:09:38;100778.00;;;1.43;79.56
71248;BME280;73325;51.138;6.950;2023-12-04T04:12:08;100775.00;;;1.43;79.59
71248;BME280;73325;51.138;6.950;2023-12-04T04:14:38;100771.00;;;1.44;79.63
71248;BME280;73325;51.138;6.950;2023-12-04T04:17:08;100768.00;;;1.43;79.73
71248;BME280;73325;51.138;6.950;2023-12-04T04:19:38;100765.00;;;1.43;79.24
71248;BME280;73325;51.138;6.950;2023-12-04T04:22:08;100763.00;;;1.43;78.92
71248;BME280;73325;51.138;6.950;2023-12-04T04:24:38;100762.00;;;1.44;79.04
71248;BME280;73325;51.138;6.950;2023-12-04T04:27:08;100761.00;;;1.44;78.67
71248;BME280;73325;51.138;6.950;2023-12-04T04:29:39;100758.00;;;1.45;79.49
71248;BME280;73325;51.138;6.950;2023-12-04T04:32:20;100756.00;;;1.46;78.87
71248;BME280;73325;51.138;6.950;2023-12-04T04:34:39;100752.00;;;1.46;79.89
71248;BME280;73325;51.138;6.950;2023-12-04T04:37:09;100750.00;;;1.46;79.59
71248;BME280;73325;51.138;6.950;2023-12-04T04:39:41;100749.00;;;1.45;79.66
71248;BME280;73325;51.138;6.950;2023-12-04T04:42:09;100746.00;;;1.45;79.80
71248;BME280;73325;51.138;6.950;2023-12-04T04:44:39;100744.00;;;1.44;79.54
71248;BME280;73325;51.138;6.950;2023-12-04T04:47:09;100742.00;;;1.44;79.72
71248;BME280;73325;51.138;6.950;2023-12-04T04:49:39;100740.00;;;1.44;80.12
71248;BME280;73325;51.138;6.950;2023-12-04T04:52:09;100739.00;;;1.44;79.45
71248;BME280;73325;51.138;6.950;2023-12-04T04:54:39;100737.00;;;1.44;79.80
71248;BME280;73325;51.138;6.950;2023-12-04T04:57:09;100736.00;;;1.44;80.45
71248;BME280;73325;51.138;6.950;2023-12-04T04:59:39;100734.00;;;1.44;79.82
71248;BME280;73325;51.138;6.950;2023-12-04T05:02:09;100734.00;;;1.44;80.08
71248;BME280;73325;51.138;6.950;2023-12-04T05:04:39;100733.00;;;1.44;80.72
71248;BME280;73325;51.138;6.950;2023-12-04T05:07:10;100732.00;;;1.43;80.89
71248;BME280;73325;51.138;6.950;2023-12-04T05:09:39;100732.00;;;1.42;80.30
71248;BME280;73325;51.138;6.950;2023-12-04T05:12:10;100730.00;;;1.41;80.05
71248;BME280;73325;51.138;6.950;2023-12-04T05:14:42;100728.00;;;1.40;80.45
71248;BME280;73325;51.138;6.950;2023-12-04T05:17:11;100726.00;;;1.39;80.77
71248;BME280;73325;51.138;6.950;2023-12-04T05:19:46;100723.00;;;1.38;80.76
71248;BME280;73325;51.138;6.950;2023-12-04T05:22:11;100720.00;;;1.37;80.53
71248;BME280;73325;51.138;6.950;2023-12-04T05:24:41;100717.00;;;1.36;80.19
71248;BME280;73325;51.138;6.950;2023-12-04T05:27:11;100714.00;;;1.36;80.99
71248;BME280;73325;51.138;6.950;2023-12-04T05:29:41;100712.00;;;1.35;80.30
71248;BME280;73325;51.138;6.950;2023-12-04T05:32:12;100711.00;;;1.35;80.52
71248;BME280;73325;51.138;6.950;2023-12-04T05:34:42;100709.00;;;1.34;80.60
71248;BME280;73325;51.138;6.950;2023-12-04T05:37:12;100708.00;;;1.34;80.29
71248;BME280;73325;51.138;6.950;2023-12-04T05:39:42;100708.00;;;1.35;80.33
71248;BME280;73325;51.138;6.950;2023-12-04T05:42:12;100706.00;;;1.35;80.65
71248;BME280;73325;51.138;6.950;2023-12-04T05:44:42;100705.00;;;1.35;80.46
71248;BME280;73325;51.138;6.950;2023-12-04T05:47:12;100704.00;;;1.35;81.02
71248;BME280;73325;51.138;6.950;2023-12-04T05:49:42;100702.00;;;1.36;80.61
71248;BME280;73325;51.138;6.950;2023-12-04T05:52:12;100701.00;;;1.36;80.87
71248;BME280;73325;51.138;6.950;2023-12-04T05:54:42;100701.00;;;1.36;80.87
71248;BME280;73325;51.138;6.950;2023-12-04T05:57:12;100699.00;;;1.36;81.19
71248;BME280;73325;51.138;6.950;2023-12-04T05:59:42;100699.00;;;1.36;80.86
71248;BME280;73325;51.138;6.950;2023-12-04T06:02:13;100700.00;;;1.36;80.66
71248;BME280;73325;51.138;6.950;2023-12-04T06:04:43;100699.00;;;1.37;80.74
71248;BME280;73325;51.138;6.950;2023-12-04T06:07:13;100697.00;;;1.38;80.36
71248;BME280;73325;51.138;6.950;2023-12-04T06:09:43;100697.00;;;1.38;80.52
71248;BME280;73325;51.138;6.950;2023-12-04T06:12:16;100696.00;;;1.39;81.45
71248;BME280;73325;51.138;6.950;2023-12-04T06:14:44;100695.00;;;1.40;81.55
71248;BME280;73325;51.138;6.950;2023-12-04T06:17:14;100694.00;;;1.40;80.67
71248;BME280;73325;51.138;6.950;2023-12-04T06:19:45;100691.00;;;1.41;80.89
71248;BME280;73325;51.138;6.950;2023-12-04T06:22:14;100688.00;;;1.42;80.96
71248;BME280;73325;51.138;6.950;2023-12-04T06:24:45;100685.00;;;1.42;80.67
71248;BME280;73325;51.138;6.950;2023-12-04T06:27:17;100682.00;;;1.43;80.06
71248;BME280;73325;51.138;6.950;2023-12-04T06:29:51;100679.00;;;1.43;80.27
71248;BME280;73325;51.138;6.950;2023-12-04T06:32:17;100677.00;;;1.44;80.08
71248;BME280;73325;51.138;6.950;2023-12-04T06:34:52;100674.00;;;1.45;80.27
71248;BME280;73325;51.138;6.950;2023-12-04T06:37:18;100670.00;;;1.45;80.48
71248;BME280;73325;51.138;6.950;2023-12-04T06:39:50;100665.00;;;1.45;80.37
71248;BME280;73325;51.138;6.950;2023-12-04T06:42:20;100661.00;;;1.45;80.18
71248;BME280;73325;51.138;6.950;2023-12-04T06:44:53;100655.00;;;1.44;80.08
71248;BME280;73325;51.138;6.950;2023-12-04T06:47:22;100649.00;;;1.44;79.64
71248;BME280;73325;51.138;6.950;2023-12-04T06:49:53;100643.00;;;1.44;79.62
71248;BME280;73325;51.138;6.950;2023-12-04T06:52:21;100639.00;;;1.44;80.12
71248;BME280;73325;51.138;6.950;2023-12-04T06:54:51;100633.00;;;1.44;79.07
71248;BME280;73325;51.138;6.950;2023-12-04T06:57:21;100628.00;;;1.45;79.00
71248;BME280;73325;51.138;6.950;2023-12-04T06:59:56;100623.00;;;1.46;79.69
71248;BME280;73325;51.138;6.950;2023-12-04T07:02:21;100616.00;;;1.47;79.32
71248;BME280;73325;51.138;6.950;2023-12-04T07:04:51;100610.00;;;1.47;79.40
71248;BME280;73325;51.138;6.950;2023-12-04T07:07:21;100605.00;;;1.47;79.40
71248;BME280;73325;51.138;6.950;2023-12-04T07:09:51;100601.00;;;1.47;79.40
71248;BME280;73325;51.138;6.950;2023-12-04T07:12:21;100595.00;;;1.47;79.99
71248;BME280;73325;51.138;6.950;2023-12-04T07:14:51;100587.00;;;1.47;79.05
71248;BME280;73325;51.138;6.950;2023-12-04T07:17:21;100581.00;;;1.47;78.72
71248;BME280;73325;51.138;6.950;2023-12-04T07:19:52;100577.00;;;1.48;79.10
71248;BME280;73325;51.138;6.950;2023-12-04T07:22:22;100575.00;;;1.48;79.13
71248;BME280;73325;51.138;6.950;2023-12-04T07:24:52;100573.00;;;1.49;79.75
71248;BME280;73325;51.138;6.950;2023-12-04T07:27:22;100574.00;;;1.50;80.98
71248;BME280;73325;51.138;6.950;2023-12-04T07:29:52;100574.00;;;1.50;79.80
71248;BME280;73325;51.138;6.950;2023-12-04T07:32:22;100572.00;;;1.50;79.49
71248;BME280;73325;51.138;6.950;2023-12-04T07:34:52;100570.00;;;1.50;79.56
71248;BME280;73325;51.138;6.950;2023-12-04T07:37:22;100565.00;;;1.52;79.15
71248;BME280;73325;51.138;6.950;2023-12-04T07:39:52;100562.00;;;1.53;78.43
71248;BME280;73325;51.138;6.950;2023-12-04T07:42:23;100559.00;;;1.56;78.66
71248;BME280;73325;51.138;6.950;2023-12-04T07:44:53;100556.00;;;1.58;78.09
71248;BME280;73325;51.138;6.950;2023-12-04T07:47:23;100556.00;;;1.61;78.06
71248;BME280;73325;51.138;6.950;2023-12-04T07:49:53;100559.00;;;1.64;78.37
71248;BME280;73325;51.138;6.950;2023-12-04T07:52:23;100560.00;;;1.67;78.17
71248;BME280;73325;51.138;6.950;2023-12-04T07:54:53;100562.00;;;1.70;78.04
71248;BME280;73325;51.138;6.950;2023-12-04T07:57:23;100564.00;;;1.73;78.44
71248;BME280;73325;51.138;6.950;2023-12-04T07:59:54;100566.00;;;1.76;78.00
71248;BME280;73325;51.138;6.950;2023-12-04T08:02:24;100566.00;;;1.79;77.99
71248;BME280;73325;51.138;6.950;2023-12-04T08:04:54;100566.00;;;1.82;78.32
71248;BME280;73325;51.138;6.950;2023-12-04T08:07:24;100566.00;;;1.84;78.01
71248;BME280;73325;51.138;6.950;2023-12-04T08:09:54;100567.00;;;1.87;76.91
71248;BME280;73325;51.138;6.950;2023-12-04T08:12:24;100567.00;;;1.91;76.55
71248;BME280;73325;51.138;6.950;2023-12-04T08:14:54;100566.00;;;1.94;76.64
71248;BME280;73325;51.138;6.950;2023-12-04T08:17:24;100565.00;;;1.98;76.61
71248;BME280;73325;51.138;6.950;2023-12-04T08:19:54;100562.00;;;2.02;74.17
71248;BME280;73325;51.138;6.950;2023-12-04T08:22:24;100562.00;;;2.06;74.87
71248;BME280;73325;51.138;6.950;2023-12-04T08:24:54;100562.00;;;2.09;74.89
71248;BME280;73325;51.138;6.950;2023-12-04T08:27:24;100560.00;;;2.12;75.10
71248;BME280;73325;51.138;6.950;2023-12-04T08:29:54;100558.00;;;2.14;74.39
71248;BME280;73325;51.138;6.950;2023-12-04T08:32:24;100557.00;;;2.16;74.12
71248;BME280;73325;51.138;6.950;2023-12-04T08:34:54;100556.00;;;2.19;75.00
71248;BME280;73325;51.138;6.950;2023-12-04T08:37:24;100554.00;;;2.21;74.01
71248;BME280;73325;51.138;6.950;2023-12-04T08:39:54;100551.00;;;2.23;74.29
71248;BME280;73325;51.138;6.950;2023-12-04T08:42:24;100547.00;;;2.25;74.00
71248;BME280;73325;51.138;6.950;2023-12-04T08:44:54;100544.00;;;2.27;74.06
71248;BME280;73325;51.138;6.950;2023-12-04T08:47:24;100540.00;;;2.30;73.31
71248;BME280;73325;51.138;6.950;2023-12-04T08:49:54;100536.00;;;2.32;74.67
71248;BME280;73325;51.138;6.950;2023-12-04T08:52:24;100532.00;;;2.34;73.10
71248;BME280;73325;51.138;6.950;2023-12-04T08:54:55;100527.00;;;2.36;73.33
71248;BME280;73325;51.138;6.950;2023-12-04T08:57:32;100524.00;;;2.37;72.87
71248;BME280;73325;51.138;6.950;2023-12-04T08:59:56;100520.00;;;2.39;73.27
71248;BME280;73325;51.138;6.950;2023-12-04T09:02:26;100516.00;;;2.40;73.77
71248;BME280;73325;51.138;6.950;2023-12-04T09:04:56;100511.00;;;2.42;73.18
71248;BME280;73325;51.138;6.950;2023-12-04T09:07:26;100506.00;;;2.43;73.05
71248;BME280;73325;51.138;6.950;2023-12-04T09:09:57;100502.00;;;2.44;72.85
71248;BME280;73325;51.138;6.950;2023-12-04T09:12:27;100499.00;;;2.46;73.35
71248;BME280;73325;51.138;6.950;2023-12-04T09:14:57;100497.00;;;2.47;73.31
71248;BME280;73325;51.138;6.950;2023-12-04T09:17:27;100492.00;;;2.49;72.43
71248;BME280;73325;51.138;6.950;2023-12-04T09:19:57;100490.00;;;2.51;73.38
71248;BME280;73325;51.138;6.950;2023-12-04T09:22:27;100486.00;;;2.52;73.09
71248;BME280;73325;51.138;6.950;2023-12-04T09:24:57;100481.00;;;2.54;71.98
71248;BME280;73325;51.138;6.950;2023-12-04T09:27:27;100478.00;;;2.56;72.49
71248;BME280;73325;51.138;6.950;2023-12-04T09:29:57;100475.00;;;2.57;72.58
71248;BME280;73325;51.138;6.950;2023-12-04T09:32:27;100473.00;;;2.59;72.08
71248;BME280;73325;51.138;6.950;2023-12-04T09:34:58;100472.00;;;2.60;72.71
71248;BME280;73325;51.138;6.950;2023-12-04T09:37:28;100470.00;;;2.62;72.34
71248;BME280;73325;51.138;6.950;2023-12-04T09:39:58;100468.00;;;2.63;73.28
71248;BME280;73325;51.138;6.950;2023-12-04T09:42:29;100465.00;;;2.64;71.96
71248;BME280;73325;51.138;6.950;2023-12-04T09:44:59;100462.00;;;2.65;72.23
71248;BME280;73325;51.138;6.950;2023-12-04T09:47:29;100460.00;;;2.66;72.06
71248;BME280;73325;51.138;6.950;2023-12-04T09:50:00;100456.00;;;2.67;71.77
71248;BME280;73325;51.138;6.950;2023-12-04T09:52:30;100452.00;;;2.68;72.55
71248;BME280;73325;51.138;6.950;2023-12-04T09:55:01;100446.00;;;2.68;72.29
71248;BME280;73325;51.138;6.950;2023-12-04T09:57:31;100439.00;;;2.69;72.15
71248;BME280;73325;51.138;6.950;2023-12-04T10:00:03;100434.00;;;2.70;71.61
71248;BME280;73325;51.138;6.950;2023-12-04T10:02:33;100429.00;;;2.72;73.31
71248;BME280;73325;51.138;6.950;2023-12-04T10:05:03;100424.00;;;2.74;72.03
71248;BME280;73325;51.138;6.950;2023-12-04T10:07:34;100420.00;;;2.76;72.03
71248;BME280;73325;51.138;6.950;2023-12-04T10:10:04;100417.00;;;2.79;72.27
71248;BME280;73325;51.138;6.950;2023-12-04T10:12:35;100413.00;;;2.82;72.63
71248;BME280;73325;51.138;6.950;2023-12-04T10:15:09;100408.00;;;2.84;71.67
71248;BME280;73325;51.138;6.950;2023-12-04T10:17:35;100404.00;;;2.87;72.20
71248;BME280;73325;51.138;6.950;2023-12-04T10:20:10;100399.00;;;2.89;72.04
71248;BME280;73325;51.138;6.950;2023-12-04T10:22:36;100393.00;;;2.91;72.50
71248;BME280;73325;51.138;6.950;2023-12-04T10:25:17;100389.00;;;2.94;71.99
71248;BME280;73325;51.138;6.950;2023-12-04T10:27:37;100386.00;;;2.96;71.76
71248;BME280;73325;51.138;6.950;2023-12-04T10:30:08;100383.00;;;2.98;71.68
71248;BME280;73325;51.138;6.950;2023-12-04T10:32:41;100382.00;;;3.00;72.31
71248;BME280;73325;51.138;6.950;2023-12-04T10:35:08;100379.00;;;3.02;72.16
71248;BME280;73325;51.138;6.950;2023-12-04T10:37:39;100379.00;;;3.03;72.82
71248;BME280;73325;51.138;6.950;2023-12-04T10:40:09;100378.00;;;3.05;72.23
71248;BME280;73325;51.138;6.950;2023-12-04T10:42:39;100376.00;;;3.05;72.73
71248;BME280;73325;51.138;6.950;2023-12-04T10:45:10;100374.00;;;3.05;72.70
71248;BME280;73325;51.138;6.950;2023-12-04T10:47:40;100371.00;;;3.06;73.49
71248;BME280;73325;51.138;6.950;2023-12-04T10:50:10;100366.00;;;3.06;73.63
71248;BME280;73325;51.138;6.950;2023-12-04T10:52:42;100362.00;;;3.06;73.18
71248;BME280;73325;51.138;6.950;2023-12-04T10:55:11;100359.00;;;3.06;73.49
71248;BME280;73325;51.138;6.950;2023-12-04T10:57:43;100357.00;;;3.05;74.12
71248;BME280;73325;51.138;6.950;2023-12-04T11:00:13;100353.00;;;3.05;73.87
71248;BME280;73325;51.138;6.950;2023-12-04T11:02:43;100352.00;;;3.05;73.77
71248;BME280;73325;51.138;6.950;2023-12-04T11:05:16;100349.00;;;3.06;74.99
71248;BME280;73325;51.138;6.950;2023-12-04T11:07:52;100345.00;;;3.06;75.31
71248;BME280;73325;51.138;6.950;2023-12-04T11:10:15;100342.00;;;3.07;75.39
71248;BME280;73325;51.138;6.950;2023-12-04T11:12:45;100340.00;;;3.07;76.98
71248;BME280;73325;51.138;6.950;2023-12-04T11:15:17;100341.00;;;3.07;76.81
71248;BME280;73325;51.138;6.950;2023-12-04T11:17:49;100340.00;;;3.07;78.01
71248;BME280;73325;51.138;6.950;2023-12-04T11:20:18;100339.00;;;3.06;79.04
71248;BME280;73325;51.138;6.950;2023-12-04T11:22:49;100338.00;;;3.04;79.10
71248;BME280;73325;51.138;6.950;2023-12-04T11:25:17;100337.00;;;3.03;80.21
71248;BME280;73325;51.138;6.950;2023-12-04T11:27:48;100336.00;;;3.01;80.26
71248;BME280;73325;51.138;6.950;2023-12-04T11:30:18;100333.00;;;2.98;81.01
71248;BME280;73325;51.138;6.950;2023-12-04T11:32:49;100332.00;;;2.96;81.05
71248;BME280;73325;51.138;6.950;2023-12-04T11:35:20;100330.00;;;2.94;82.11
71248;BME280;73325;51.138;6.950;2023-12-04T11:37:50;100328.00;;;2.92;81.97
71248;BME280;73325;51.138;6.950;2023-12-04T11:40:20;100326.00;;;2.90;83.20
71248;BME280;73325;51.138;6.950;2023-12-04T11:42:52;100325.00;;;2.88;83.92
71248;BME280;73325;51.138;6.950;2023-12-04T11:45:21;100321.00;;;2.86;83.90
71248;BME280;73325;51.138;6.950;2023-12-04T11:47:52;100316.00;;;2.85;84.41
71248;BME280;73325;51.138;6.950;2023-12-04T11:50:22;100312.00;;;2.83;84.58
71248;BME280;73325;51.138;6.950;2023-12-04T11:52:51;100307.00;;;2.82;84.94
71248;BME280;73325;51.138;6.950;2023-12-04T11:55:22;100303.00;;;2.80;85.58
71248;BME280;73325;51.138;6.950;2023-12-04T11:57:54;100298.00;;;2.79;85.50
71248;BME280;73325;51.138;6.950;2023-12-04T12:00:23;100293.00;;;2.78;86.03
71248;BME280;73325;51.138;6.950;2023-12-04T12:03:01;100288.00;;;2.77;86.33
71248;BME280;73325;51.138;6.950;2023-12-04T12:05:24;100282.00;;;2.76;86.38
71248;BME280;73325;51.138;6.950;2023-12-04T12:07:54;100276.00;;;2.75;86.54
71248;BME280;73325;51.138;6.950;2023-12-04T12:10:25;100270.00;;;2.74;86.47
71248;BME280;73325;51.138;6.950;2023-12-04T12:12:55;100264.00;;;2.72;86.98
71248;BME280;73325;51.138;6.950;2023-12-04T12:15:25;100259.00;;;2.71;87.53
71248;BME280;73325;51.138;6.950;2023-12-04T12:17:55;100253.00;;;2.69;87.56
71248;BME280;73325;51.138;6.950;2023-12-04T12:20:25;100248.00;;;2.67;87.76
71248;BME280;73325;51.138;6.950;2023-12-04T12:22:55;100241.00;;;2.65;87.95
71248;BME280;73325;51.138;6.950;2023-12-04T12:25:26;100235.00;;;2.62;88.38
71248;BME280;73325;51.138;6.950;2023-12-04T12:27:55;100230.00;;;2.59;88.62
71248;BME280;73325;51.138;6.950;2023-12-04T12:30:25;100225.00;;;2.57;89.32
71248;BME280;73325;51.138;6.950;2023-12-04T12:32:55;100220.00;;;2.54;89.11
71248;BME280;73325;51.138;6.950;2023-12-04T12:35:26;100215.00;;;2.52;89.54
71248;BME280;73325;51.138;6.950;2023-12-04T12:37:55;100210.00;;;2.50;89.91
71248;BME280;73325;51.138;6.950;2023-12-04T12:40:27;100205.00;;;2.49;89.76
71248;BME280;73325;51.138;6.950;2023-12-04T12:43:05;100199.00;;;2.48;90.16
71248;BME280;73325;51.138;6.950;2023-12-04T12:45:26;100195.00;;;2.47;90.17
71248;BME280;73325;51.138;6.950;2023-12-04T12:47:56;100192.00;;;2.46;90.54
71248;BME280;73325;51.138;6.950;2023-12-04T12:50:26;100188.00;;;2.46;90.61
71248;BME280;73325;51.138;6.950;2023-12-04T12:52:56;100186.00;;;2.45;90.52
71248;BME280;73325;51.138;6.950;2023-12-04T12:55:27;100183.00;;;2.45;90.73
71248;BME280;73325;51.138;6.950;2023-12-04T12:57:57;100181.00;;;2.45;90.87
71248;BME280;73325;51.138;6.950;2023-12-04T13:00:27;100178.00;;;2.45;90.87
71248;BME280;73325;51.138;6.950;2023-12-04T13:02:57;100174.00;;;2.45;90.99
71248;BME280;73325;51.138;6.950;2023-12-04T13:05:27;100168.00;;;2.46;91.07
71248;BME280;73325;51.138;6.950;2023-12-04T13:07:58;100162.00;;;2.47;91.17
71248;BME280;73325;51.138;6.950;2023-12-04T13:10:28;100156.00;;;2.48;91.24
71248;BME280;73325;51.138;6.950;2023-12-04T13:12:58;100152.00;;;2.49;91.07
71248;BME280;73325;51.138;6.950;2023-12-04T13:15:28;100148.00;;;2.50;91.34
71248;BME280;73325;51.138;6.950;2023-12-04T13:17:58;100144.00;;;2.51;91.08